createdAt,value
2022-11-26T00:01:02.036Z,48.13
2022-11-26T00:03:49.464Z,48.25
2022-11-26T00:06:38.102Z,48.06
2022-11-26T00:09:25.229Z,48.39
2022-11-26T00:12:22.198Z,48.31
2022-11-26T00:15:21.195Z,48.05
2022-11-26T00:18:07.298Z,48.32
2022-11-26T00:21:00.148Z,48.42
2022-11-26T00:23:46.532Z,48.18
2022-11-26T00:26:32.437Z,48.17
2022-11-26T00:29:18.693Z,48.44
2022-11-26T00:32:11.956Z,48.67
2022-11-26T00:34:58.223Z,48.26
2022-11-26T00:37:47.379Z,48.32
2022-11-26T00:40:33.919Z,48.32
2022-11-26T00:43:20.110Z,48.48
2022-11-26T00:46:05.926Z,48.62
2022-11-26T00:48:52.180Z,48.43
2022-11-26T00:51:38.525Z,48.46
2022-11-26T00:54:24.592Z,48.62
2022-11-26T00:57:11.299Z,48.54
2022-11-26T00:59:57.500Z,48.85
2022-11-26T01:02:43.398Z,48.16
2022-11-26T01:05:33.767Z,48.57
2022-11-26T01:08:30.058Z,48.54
2022-11-26T01:11:21.210Z,48.75
2022-11-26T01:14:07.308Z,48.72
2022-11-26T01:16:55.696Z,48.92
2022-11-26T01:19:41.496Z,48.62
2022-11-26T01:22:27.491Z,49.00
2022-11-26T01:25:13.527Z,48.55
2022-11-26T01:27:59.466Z,49.15
2022-11-26T01:30:46.471Z,48.72
2022-11-26T01:33:32.659Z,48.63
2022-11-26T01:36:27.734Z,49.04
2022-11-26T01:39:19.033Z,48.57
2022-11-26T01:42:35.055Z,49.10
2022-11-26T01:45:23.030Z,49.05
2022-11-26T01:48:26.789Z,49.10
2022-11-26T01:51:13.538Z,48.99
2022-11-26T01:54:00.284Z,49.26
2022-11-26T01:56:52.449Z,49.33
2022-11-26T01:59:41.175Z,49.28
2022-11-26T02:02:28.960Z,49.36
2022-11-26T02:05:24.548Z,49.31
2022-11-26T02:08:12.114Z,49.08
2022-11-26T02:10:58.431Z,49.39
2022-11-26T02:13:45.866Z,49.30
2022-11-26T02:16:46.364Z,49.17
2022-11-26T02:19:56.650Z,49.28
2022-11-26T02:22:57.890Z,49.14
2022-11-26T02:25:58.912Z,49.48
2022-11-26T02:29:03.195Z,49.35
2022-11-26T02:32:24.931Z,49.34
2022-11-26T02:35:18.660Z,49.12
2022-11-26T02:38:16.104Z,49.48
2022-11-26T02:41:02.364Z,49.23
2022-11-26T02:43:48.409Z,49.73
2022-11-26T02:46:34.581Z,49.70
2022-11-26T02:49:21.999Z,49.69
2022-11-26T02:52:08.362Z,49.60
2022-11-26T02:54:56.001Z,49.67
2022-11-26T02:57:46.965Z,49.76
2022-11-26T03:00:34.893Z,49.52
2022-11-26T03:03:26.165Z,49.63
2022-11-26T03:06:13.696Z,49.53
2022-11-26T03:08:59.611Z,49.60
2022-11-26T03:11:45.744Z,49.84
2022-11-26T03:14:31.713Z,49.88
2022-11-26T03:17:18.338Z,50.15
2022-11-26T03:20:05.486Z,49.90
2022-11-26T03:22:51.279Z,49.54
2022-11-26T03:25:37.499Z,50.24
2022-11-26T03:28:24.422Z,50.04
2022-11-26T03:31:10.492Z,50.07
2022-11-26T03:33:56.562Z,49.85
2022-11-26T03:36:43.131Z,50.21
2022-11-26T03:39:29.071Z,50.00
2022-11-26T03:42:14.968Z,49.82
2022-11-26T03:45:01.215Z,50.14
2022-11-26T03:47:47.200Z,50.04
2022-11-26T03:50:33.227Z,50.29
2022-11-26T03:53:19.179Z,50.26
2022-11-26T03:56:05.537Z,50.22
2022-11-26T03:58:51.602Z,50.08
2022-11-26T04:01:37.642Z,50.12
2022-11-26T04:04:23.479Z,50.19
2022-11-26T04:07:09.647Z,49.96
2022-11-26T04:09:55.333Z,50.19
2022-11-26T04:12:41.360Z,50.04
2022-11-26T04:15:27.412Z,50.06
2022-11-26T04:18:13.281Z,50.09
2022-11-26T04:20:59.282Z,50.25
2022-11-26T04:23:45.178Z,50.39
2022-11-26T04:26:31.195Z,50.37
2022-11-26T04:29:17.063Z,50.03
2022-11-26T04:32:04.222Z,50.34
2022-11-26T04:34:50.275Z,50.52
2022-11-26T04:37:36.371Z,50.63
2022-11-26T04:40:22.335Z,50.34
2022-11-26T04:43:08.463Z,50.37
2022-11-26T04:45:54.516Z,50.40
2022-11-26T04:48:40.460Z,50.43
2022-11-26T04:51:26.538Z,50.80
2022-11-26T04:54:13.354Z,50.49
2022-11-26T04:56:59.456Z,50.50
2022-11-26T04:59:45.660Z,50.88
2022-11-26T05:02:31.834Z,50.67
2022-11-26T05:05:17.837Z,50.71
2022-11-26T05:08:04.267Z,50.63
2022-11-26T05:10:54.456Z,50.75
2022-11-26T05:13:40.360Z,50.85
2022-11-26T05:16:26.493Z,50.53
2022-11-26T05:19:12.292Z,50.39
2022-11-26T05:21:58.156Z,50.74
2022-11-26T05:24:44.132Z,50.47
2022-11-26T05:27:30.067Z,51.03
2022-11-26T05:30:16.392Z,50.72
2022-11-26T05:33:02.515Z,50.90
2022-11-26T05:35:48.535Z,50.65
2022-11-26T05:38:34.647Z,50.96
2022-11-26T05:41:20.755Z,50.86
2022-11-26T05:44:07.198Z,51.01
2022-11-26T05:46:52.934Z,50.96
2022-11-26T05:49:38.800Z,50.86
2022-11-26T05:52:24.834Z,50.76
2022-11-26T05:55:10.719Z,51.16
2022-11-26T05:57:56.587Z,51.09
2022-11-26T06:00:42.599Z,51.26
2022-11-26T06:03:28.649Z,51.01
2022-11-26T06:06:14.761Z,50.88
2022-11-26T06:09:00.806Z,51.10
2022-11-26T06:11:49.448Z,50.45
2022-11-26T06:14:37.214Z,50.85
2022-11-26T06:17:26.362Z,51.28
2022-11-26T06:20:13.218Z,51.00
2022-11-26T06:22:59.118Z,50.92
2022-11-26T06:25:45.163Z,51.06
2022-11-26T06:28:31.076Z,51.08
2022-11-26T06:31:17.105Z,51.02
2022-11-26T06:34:03.087Z,51.55
2022-11-26T06:36:48.975Z,51.01
2022-11-26T06:39:36.265Z,51.41
2022-11-26T06:42:22.455Z,51.30
2022-11-26T06:45:08.999Z,51.23
2022-11-26T06:47:55.507Z,51.17
2022-11-26T06:50:41.460Z,51.32
2022-11-26T06:53:27.259Z,51.42
2022-11-26T06:56:18.735Z,51.37
2022-11-26T06:59:05.378Z,51.81
2022-11-26T07:01:51.752Z,51.57
2022-11-26T07:04:38.138Z,51.21
2022-11-26T07:07:24.346Z,51.57
2022-11-26T07:10:10.433Z,51.84
2022-11-26T07:12:56.610Z,51.30
2022-11-26T07:15:42.401Z,51.43
2022-11-26T07:18:28.351Z,51.36
2022-11-26T07:21:14.408Z,51.57
2022-11-26T07:24:00.418Z,51.61
2022-11-26T07:26:46.349Z,51.62
2022-11-26T07:29:32.639Z,51.57
2022-11-26T07:32:18.748Z,51.63
2022-11-26T07:35:05.592Z,51.32
2022-11-26T07:37:51.420Z,51.29
2022-11-26T07:40:37.352Z,51.52
2022-11-26T07:43:23.455Z,51.44
2022-11-26T07:46:13.941Z,51.50
2022-11-26T07:48:59.928Z,51.60
2022-11-26T07:51:45.936Z,51.72
2022-11-26T07:54:32.312Z,51.85
2022-11-26T07:57:18.441Z,51.92
2022-11-26T08:00:05.075Z,52.26
2022-11-26T08:02:58.064Z,51.74
2022-11-26T08:05:45.213Z,51.81
2022-11-26T08:08:31.127Z,51.98
2022-11-26T08:11:22.557Z,51.66
2022-11-26T08:14:12.785Z,51.96
2022-11-26T08:16:59.151Z,51.83
2022-11-26T08:19:45.594Z,52.15
2022-11-26T08:22:31.551Z,51.83
2022-11-26T08:25:17.801Z,52.10
2022-11-26T08:28:04.095Z,51.81
2022-11-26T08:30:50.220Z,51.83
2022-11-26T08:33:36.515Z,51.76
2022-11-26T08:36:22.945Z,52.15
2022-11-26T08:39:15.359Z,52.06
2022-11-26T08:42:01.656Z,51.92
2022-11-26T08:44:48.145Z,51.92
2022-11-26T08:47:33.985Z,52.03
2022-11-26T08:50:20.873Z,52.14
2022-11-26T08:53:07.089Z,51.99
2022-11-26T08:56:00.171Z,52.11
2022-11-26T08:58:49.007Z,51.73
2022-11-26T09:01:35.471Z,51.89
2022-11-26T09:04:21.588Z,51.88
2022-11-26T09:07:08.013Z,52.11
2022-11-26T09:09:53.772Z,52.51
2022-11-26T09:12:39.720Z,52.14
2022-11-26T09:15:25.751Z,52.05
2022-11-26T09:18:12.135Z,52.48
2022-11-26T09:21:02.783Z,52.73
2022-11-26T09:23:49.243Z,52.20
2022-11-26T09:26:35.542Z,52.44
2022-11-26T09:29:23.124Z,52.28
2022-11-26T09:32:24.393Z,52.66
2022-11-26T09:35:11.965Z,52.94
2022-11-26T09:37:57.980Z,52.07
2022-11-26T09:41:16.421Z,52.98
2022-11-26T09:44:41.663Z,52.32
2022-11-26T09:47:32.054Z,52.13
2022-11-26T09:50:26.307Z,52.59
2022-11-26T09:53:21.634Z,52.35
2022-11-26T09:56:13.867Z,52.04
2022-11-26T09:59:03.802Z,52.30
2022-11-26T10:01:49.958Z,52.22
2022-11-26T10:04:37.703Z,52.31
2022-11-26T10:07:52.454Z,52.16
2022-11-26T10:10:49.393Z,52.23
2022-11-26T10:13:50.592Z,51.79
2022-11-26T10:16:56.953Z,51.81
2022-11-26T10:19:52.010Z,52.22
2022-11-26T10:22:57.161Z,51.85
2022-11-26T10:25:50.071Z,52.01
2022-11-26T10:28:41.087Z,51.71
2022-11-26T10:31:32.068Z,51.89
2022-11-26T10:34:39.467Z,52.04
2022-11-26T10:37:27.416Z,51.76
2022-11-26T10:40:26.563Z,51.73
2022-11-26T10:43:21.892Z,51.67
2022-11-26T10:46:07.716Z,51.80
2022-11-26T10:48:53.568Z,51.65
2022-11-26T10:51:39.971Z,51.51
2022-11-26T10:54:34.854Z,51.60
2022-11-26T10:57:21.323Z,51.51
2022-11-26T11:00:15.479Z,51.52
2022-11-26T11:03:02.580Z,52.04
2022-11-26T11:05:48.660Z,51.61
2022-11-26T11:08:34.815Z,51.34
2022-11-26T11:11:38.761Z,51.65
2022-11-26T11:14:29.117Z,51.10
2022-11-26T11:17:25.570Z,51.61
2022-11-26T11:20:14.789Z,51.22
2022-11-26T11:23:31.113Z,51.21
2022-11-26T11:26:40.710Z,51.52
2022-11-26T11:29:31.467Z,51.24
2022-11-26T11:32:38.130Z,51.34
2022-11-26T11:35:27.149Z,51.28
2022-11-26T11:38:24.944Z,51.07
2022-11-26T11:41:23.420Z,50.99
2022-11-26T11:44:20.607Z,50.90
2022-11-26T11:47:11.100Z,50.82
2022-11-26T11:50:06.275Z,50.71
2022-11-26T11:53:10.990Z,50.44
2022-11-26T11:56:09.252Z,50.68
2022-11-26T11:59:07.482Z,50.74
2022-11-26T12:02:20.990Z,50.69
2022-11-26T12:05:23.140Z,50.30
2022-11-26T12:08:15.811Z,50.37
2022-11-26T12:11:22.303Z,50.80
2022-11-26T12:14:14.808Z,50.57
2022-11-26T12:17:27.799Z,50.44
2022-11-26T12:21:07.488Z,50.32
2022-11-26T12:23:58.617Z,50.19
2022-11-26T12:27:08.207Z,50.23
2022-11-26T12:30:08.613Z,50.47
2022-11-26T12:32:55.827Z,50.71
2022-11-26T12:35:54.076Z,49.81
2022-11-26T12:38:46.751Z,50.07
2022-11-26T12:41:35.091Z,50.71
2022-11-26T12:44:37.334Z,50.41
2022-11-26T12:47:37.211Z,50.55
2022-11-26T12:50:35.079Z,49.79
2022-11-26T12:53:47.200Z,49.91
2022-11-26T12:56:38.540Z,49.52
2022-11-26T12:59:24.653Z,49.65
2022-11-26T13:02:35.606Z,49.33
2022-11-26T13:06:00.725Z,49.94
2022-11-26T13:08:55.666Z,49.87
2022-11-26T13:11:47.712Z,49.59
2022-11-26T13:14:56.782Z,49.60
2022-11-26T13:17:44.810Z,49.46
2022-11-26T13:20:52.555Z,49.54
2022-11-26T13:23:51.651Z,49.75
2022-11-26T13:26:46.075Z,49.02
2022-11-26T13:29:47.128Z,49.06
2022-11-26T13:32:42.037Z,49.48
2022-11-26T13:35:34.274Z,49.60
2022-11-26T13:38:26.019Z,49.54
2022-11-26T13:41:33.538Z,49.61
2022-11-26T13:44:34.825Z,49.29
2022-11-26T13:47:35.850Z,49.24
2022-11-26T13:50:29.919Z,49.26
2022-11-26T13:53:25.078Z,49.17
2022-11-26T13:56:13.506Z,49.23
2022-11-26T13:59:02.824Z,49.30
2022-11-26T14:01:49.202Z,49.36
2022-11-26T14:04:35.397Z,48.86
2022-11-26T14:07:21.652Z,49.37
2022-11-26T14:10:30.735Z,49.17
2022-11-26T14:13:17.348Z,49.21
2022-11-26T14:16:07.121Z,49.37
2022-11-26T14:18:56.666Z,48.76
2022-11-26T14:21:58.222Z,48.86
2022-11-26T14:24:50.089Z,49.33
2022-11-26T14:27:50.092Z,49.18
2022-11-26T14:30:36.307Z,49.38
2022-11-26T14:33:27.474Z,49.21
2022-11-26T14:36:25.071Z,48.61
2022-11-26T14:39:16.833Z,49.12
2022-11-26T14:42:06.285Z,48.71
2022-11-26T14:45:15.620Z,49.18
2022-11-26T14:48:02.378Z,48.99
2022-11-26T14:50:48.632Z,48.86
2022-11-26T14:53:34.981Z,48.70
2022-11-26T14:56:23.060Z,49.00
2022-11-26T14:59:14.313Z,48.69
2022-11-26T15:02:00.178Z,49.01
2022-11-26T15:04:46.151Z,49.22
2022-11-26T15:07:32.182Z,48.73
2022-11-26T15:10:20.866Z,48.86
2022-11-26T15:13:13.073Z,48.52
2022-11-26T15:16:04.304Z,48.78
2022-11-26T15:18:52.611Z,48.48
2022-11-26T15:21:40.743Z,48.59
2022-11-26T15:24:26.932Z,48.73
2022-11-26T15:27:36.623Z,48.34
2022-11-26T15:30:24.442Z,48.44
2022-11-26T15:33:13.797Z,48.16
2022-11-26T15:36:00.298Z,48.27
2022-11-26T15:39:06.447Z,48.20
2022-11-26T15:41:52.882Z,48.32
2022-11-26T15:44:42.534Z,48.39
2022-11-26T15:47:29.229Z,48.28
2022-11-26T15:50:31.598Z,48.28
2022-11-26T15:53:20.111Z,48.18
2022-11-26T15:56:06.715Z,48.02
2022-11-26T15:58:55.894Z,48.15
2022-11-26T16:01:44.951Z,48.16
2022-11-26T16:04:38.171Z,48.63
2022-11-26T16:07:27.681Z,48.05
2022-11-26T16:10:16.587Z,48.26
2022-11-26T16:13:11.755Z,48.03
2022-11-26T16:16:03.763Z,48.28
2022-11-26T16:18:59.768Z,48.38
2022-11-26T16:21:51.231Z,48.01
2022-11-26T16:24:43.711Z,48.00
2022-11-26T16:27:31.642Z,48.07
2022-11-26T16:30:17.979Z,48.14
2022-11-26T16:33:04.537Z,47.94
2022-11-26T16:35:50.874Z,48.17
2022-11-26T16:38:36.733Z,48.29
2022-11-26T16:41:23.437Z,47.98
2022-11-26T16:44:09.805Z,48.16
2022-11-26T16:46:55.888Z,47.80
2022-11-26T16:49:41.999Z,47.93
2022-11-26T16:52:28.172Z,47.91
2022-11-26T16:55:16.078Z,47.93
2022-11-26T16:58:02.404Z,47.80
2022-11-26T17:00:51.186Z,48.13
2022-11-26T17:03:37.175Z,47.84
2022-11-26T17:06:24.870Z,47.90
2022-11-26T17:09:20.632Z,47.89
2022-11-26T17:12:17.807Z,48.00
2022-11-26T17:15:07.659Z,47.79
2022-11-26T17:18:06.868Z,47.82
2022-11-26T17:20:54.137Z,47.80
2022-11-26T17:23:42.802Z,47.81
2022-11-26T17:26:29.067Z,47.28
2022-11-26T17:29:15.159Z,47.87
2022-11-26T17:32:01.206Z,47.54
2022-11-26T17:34:48.147Z,47.65
2022-11-26T17:37:34.684Z,47.67
2022-11-26T17:40:22.045Z,47.65
2022-11-26T17:43:07.885Z,47.40
2022-11-26T17:45:54.211Z,47.47
2022-11-26T17:48:40.055Z,47.45
2022-11-26T17:51:25.872Z,47.60
2022-11-26T17:54:11.777Z,47.32
2022-11-26T17:56:57.726Z,47.40
2022-11-26T17:59:44.265Z,47.57
2022-11-26T18:02:30.553Z,47.23
2022-11-26T18:05:16.684Z,47.28
2022-11-26T18:08:02.940Z,47.32
2022-11-26T18:10:49.027Z,47.21
2022-11-26T18:13:34.999Z,47.22
2022-11-26T18:16:21.540Z,47.17
2022-11-26T18:19:09.030Z,46.81
2022-11-26T18:21:55.147Z,46.77
2022-11-26T18:24:41.180Z,46.74
2022-11-26T18:27:28.796Z,47.01
2022-11-26T18:30:15.539Z,46.89
2022-11-26T18:33:01.883Z,46.72
2022-11-26T18:35:50.833Z,46.92
2022-11-26T18:38:38.094Z,46.73
2022-11-26T18:41:24.317Z,47.04
2022-11-26T18:44:11.083Z,46.85
2022-11-26T18:46:57.156Z,46.80
2022-11-26T18:49:46.297Z,46.80
2022-11-26T18:52:33.905Z,46.52
2022-11-26T18:55:19.817Z,46.85
2022-11-26T18:58:08.154Z,46.77
2022-11-26T19:00:58.577Z,46.47
2022-11-26T19:03:44.552Z,46.73
2022-11-26T19:06:31.883Z,46.44
2022-11-26T19:09:19.839Z,46.45
2022-11-26T19:12:06.275Z,46.53
2022-11-26T19:14:52.047Z,46.40
2022-11-26T19:17:38.092Z,46.61
2022-11-26T19:20:24.349Z,46.45
2022-11-26T19:23:10.275Z,46.70
2022-11-26T19:25:56.491Z,46.85
2022-11-26T19:28:42.950Z,46.45
2022-11-26T19:31:30.618Z,46.73
2022-11-26T19:34:17.307Z,46.47
2022-11-26T19:37:03.443Z,46.47
2022-11-26T19:39:49.267Z,46.35
2022-11-26T19:42:35.348Z,46.30
2022-11-26T19:45:21.236Z,46.60
2022-11-26T19:48:07.053Z,46.76
2022-11-26T19:50:56.470Z,46.38
2022-11-26T19:53:42.939Z,46.25
2022-11-26T19:56:30.943Z,46.22
2022-11-26T19:59:17.162Z,46.51
2022-11-26T20:02:03.579Z,46.22
2022-11-26T20:04:49.503Z,46.52
2022-11-26T20:07:35.947Z,46.52
2022-11-26T20:10:21.969Z,46.56
2022-11-26T20:13:08.593Z,46.52
2022-11-26T20:15:55.250Z,46.20
2022-11-26T20:18:41.405Z,46.32
2022-11-26T20:21:29.196Z,46.28
2022-11-26T20:24:17.090Z,46.39
2022-11-26T20:27:03.067Z,46.20
2022-11-26T20:29:49.443Z,46.69
2022-11-26T20:32:36.877Z,46.15
2022-11-26T20:35:23.330Z,46.26
2022-11-26T20:38:09.941Z,46.55
2022-11-26T20:40:56.311Z,46.31
2022-11-26T20:43:42.714Z,46.41
2022-11-26T20:46:28.993Z,46.33
2022-11-26T20:49:16.194Z,46.51
2022-11-26T20:52:02.329Z,46.24
2022-11-26T20:54:52.262Z,46.37
2022-11-26T20:57:39.651Z,46.15
2022-11-26T21:00:27.682Z,46.48
2022-11-26T21:03:14.427Z,46.51
2022-11-26T21:06:04.031Z,46.71
2022-11-26T21:08:50.206Z,46.59
2022-11-26T21:11:37.533Z,46.49
2022-11-26T21:14:23.550Z,46.33
2022-11-26T21:17:09.937Z,46.43
2022-11-26T21:19:56.356Z,46.50
2022-11-26T21:22:42.690Z,46.50
2022-11-26T21:25:28.845Z,46.30
2022-11-26T21:28:15.117Z,46.16
2022-11-26T21:31:21.792Z,46.28
2022-11-26T21:34:11.182Z,46.62
2022-11-26T21:36:56.988Z,46.52
2022-11-26T21:39:43.003Z,46.53
2022-11-26T21:42:33.134Z,46.53
2022-11-26T21:45:19.103Z,46.31
2022-11-26T21:48:05.536Z,46.20
2022-11-26T21:50:51.731Z,46.34
2022-11-26T21:53:37.853Z,46.32
2022-11-26T21:56:26.386Z,46.20
2022-11-26T21:59:12.475Z,46.37
2022-11-26T22:01:58.509Z,46.39
2022-11-26T22:04:44.369Z,46.55
2022-11-26T22:07:30.712Z,46.64
2022-11-26T22:10:17.213Z,46.34
2022-11-26T22:13:02.968Z,46.54
2022-11-26T22:15:49.100Z,46.38
2022-11-26T22:18:37.203Z,46.57
2022-11-26T22:21:25.904Z,46.45
2022-11-26T22:24:14.840Z,46.43
2022-11-26T22:27:00.772Z,46.65
2022-11-26T22:29:46.810Z,46.98
2022-11-26T22:32:32.749Z,46.69
2022-11-26T22:35:18.681Z,46.51
2022-11-26T22:38:04.657Z,46.66
2022-11-26T22:40:50.672Z,46.80
2022-11-26T22:43:36.981Z,46.26
2022-11-26T22:46:23.746Z,46.77
2022-11-26T22:49:15.629Z,46.60
2022-11-26T22:52:01.905Z,46.59
2022-11-26T22:54:48.209Z,46.84
2022-11-26T22:57:34.355Z,46.67
2022-11-26T23:00:47.008Z,46.80
2022-11-26T23:03:35.401Z,46.82
2022-11-26T23:06:23.643Z,46.75
2022-11-26T23:09:11.121Z,46.83
2022-11-26T23:11:57.369Z,46.70
2022-11-26T23:14:43.452Z,46.35
2022-11-26T23:17:29.364Z,46.55
2022-11-26T23:20:15.628Z,46.58
2022-11-26T23:23:01.407Z,46.75
2022-11-26T23:25:47.474Z,46.66
2022-11-26T23:28:35.180Z,46.58
2022-11-26T23:31:26.671Z,46.65
2022-11-26T23:34:13.093Z,46.63
2022-11-26T23:36:59.387Z,46.86
2022-11-26T23:39:45.632Z,46.79
2022-11-26T23:42:31.575Z,46.63
2022-11-26T23:45:17.675Z,46.77
2022-11-26T23:48:03.692Z,46.46
2022-11-26T23:50:49.588Z,47.04
2022-11-26T23:53:37.349Z,47.13
2022-11-26T23:56:29.821Z,46.81
2022-11-26T23:59:15.755Z,46.58
